createdAt,value
2022-10-28T00:01:20.755Z,8.75
2022-10-28T00:03:51.752Z,7.00
2022-10-28T00:06:45.702Z,6.75
2022-10-28T00:09:13.380Z,7.25
2022-10-28T00:11:41.149Z,6.50
2022-10-28T00:14:10.601Z,5.50
2022-10-28T00:16:38.997Z,7.25
2022-10-28T00:19:10.364Z,3.00
2022-10-28T00:21:40.178Z,8.25
2022-10-28T00:24:09.912Z,6.00
2022-10-28T00:26:39.545Z,4.75
2022-10-28T00:29:12.690Z,6.00
2022-10-28T00:31:40.452Z,5.25
2022-10-28T00:34:14.331Z,5.50
2022-10-28T00:36:44.159Z,7.25
2022-10-28T00:39:23.226Z,4.50
2022-10-28T00:42:03.891Z,3.25
2022-10-28T00:45:00.906Z,5.00
2022-10-28T00:47:52.959Z,4.75
2022-10-28T00:50:21.378Z,5.50
2022-10-28T00:52:54.196Z,5.00
2022-10-28T00:55:23.205Z,4.50
2022-10-28T00:57:51.876Z,6.00
2022-10-28T01:00:20.044Z,6.00
2022-10-28T01:02:49.886Z,5.00
2022-10-28T01:05:22.996Z,6.00
2022-10-28T01:07:57.789Z,6.00
2022-10-28T01:10:36.570Z,5.00
2022-10-28T01:13:33.577Z,4.25
2022-10-28T01:16:07.380Z,5.50
2022-10-28T01:18:40.989Z,5.75
2022-10-28T01:21:40.587Z,6.50
2022-10-28T01:24:36.265Z,4.50
2022-10-28T01:27:36.377Z,3.75
2022-10-28T01:30:19.979Z,6.00
2022-10-28T01:33:10.059Z,4.00
2022-10-28T01:35:53.619Z,6.00
2022-10-28T01:38:57.230Z,4.50
2022-10-28T01:41:38.958Z,6.00
2022-10-28T01:44:28.746Z,4.75
2022-10-28T01:47:04.854Z,5.75
2022-10-28T01:49:48.109Z,4.00
2022-10-28T01:52:21.425Z,4.50
2022-10-28T01:54:56.623Z,5.50
2022-10-28T01:57:27.850Z,4.00
2022-10-28T01:59:56.461Z,4.00
2022-10-28T02:02:24.214Z,4.75
2022-10-28T02:04:51.860Z,2.00
2022-10-28T02:07:19.340Z,2.00
2022-10-28T02:10:10.574Z,3.50
2022-10-28T02:12:39.367Z,6.50
2022-10-28T02:15:42.892Z,5.00
2022-10-28T02:18:10.421Z,3.50
2022-10-28T02:21:01.773Z,4.00
2022-10-28T02:23:42.551Z,4.00
2022-10-28T02:26:17.453Z,5.00
2022-10-28T02:28:59.383Z,4.00
2022-10-28T02:31:35.903Z,4.50
2022-10-28T02:34:26.723Z,4.00
2022-10-28T02:36:57.391Z,4.00
2022-10-28T02:39:38.208Z,4.25
2022-10-28T02:42:09.654Z,3.00
2022-10-28T02:44:44.096Z,4.75
2022-10-28T02:47:16.023Z,3.75
2022-10-28T02:49:48.255Z,4.50
2022-10-28T02:52:19.730Z,4.25
2022-10-28T02:55:05.663Z,3.50
2022-10-28T02:57:40.507Z,3.00
2022-10-28T03:00:11.305Z,2.75
2022-10-28T03:02:38.753Z,5.00
2022-10-28T03:05:07.356Z,4.00
2022-10-28T03:07:34.893Z,3.50
2022-10-28T03:10:02.062Z,3.00
2022-10-28T03:12:29.576Z,4.00
2022-10-28T03:14:56.887Z,3.75
2022-10-28T03:17:24.297Z,2.00
2022-10-28T03:19:51.743Z,3.50
2022-10-28T03:22:19.063Z,3.00
2022-10-28T03:24:46.534Z,4.00
2022-10-28T03:27:14.004Z,3.00
2022-10-28T03:29:44.936Z,3.50
2022-10-28T03:32:14.151Z,4.00
2022-10-28T03:34:41.812Z,4.00
2022-10-28T03:37:09.546Z,3.50
2022-10-28T03:39:37.230Z,4.00
2022-10-28T03:42:04.903Z,3.00
2022-10-28T03:44:32.502Z,4.00
2022-10-28T03:47:00.137Z,2.50
2022-10-28T03:49:27.763Z,4.00
2022-10-28T03:51:55.234Z,3.00
2022-10-28T03:54:22.577Z,3.25
2022-10-28T03:56:49.927Z,2.50
2022-10-28T03:59:20.115Z,2.75
2022-10-28T04:01:48.041Z,0.00
2022-10-28T04:04:15.380Z,4.00
2022-10-28T04:06:42.827Z,2.00
2022-10-28T04:09:10.095Z,3.00
2022-10-28T04:11:38.239Z,3.75
2022-10-28T04:14:05.715Z,5.50
2022-10-28T04:16:33.216Z,2.00
2022-10-28T04:19:00.813Z,3.75
2022-10-28T04:21:28.460Z,4.25
2022-10-28T04:23:55.856Z,5.00
2022-10-28T04:26:23.582Z,4.00
2022-10-28T04:28:51.218Z,3.00
2022-10-28T04:31:18.952Z,3.00
2022-10-28T04:33:46.530Z,3.00
2022-10-28T04:36:13.968Z,4.00
2022-10-28T04:38:41.478Z,5.00
2022-10-28T04:41:13.809Z,3.00
2022-10-28T04:43:41.212Z,2.25
2022-10-28T04:46:08.540Z,4.25
2022-10-28T04:48:36.616Z,3.50
2022-10-28T04:51:04.368Z,1.25
2022-10-28T04:53:31.903Z,3.00
2022-10-28T04:56:00.122Z,4.00
2022-10-28T04:58:28.114Z,4.00
2022-10-28T05:01:00.632Z,3.00
2022-10-28T05:03:29.159Z,4.00
2022-10-28T05:05:56.819Z,4.00
2022-10-28T05:08:24.419Z,3.50
2022-10-28T05:10:51.837Z,3.00
2022-10-28T05:13:19.755Z,3.50
2022-10-28T05:15:50.868Z,3.50
2022-10-28T05:18:18.674Z,3.00
2022-10-28T05:20:46.271Z,4.00
2022-10-28T05:23:13.951Z,3.00
2022-10-28T05:25:43.341Z,3.00
2022-10-28T05:28:12.026Z,2.25
2022-10-28T05:30:39.505Z,2.50
2022-10-28T05:33:07.277Z,3.50
2022-10-28T05:35:34.903Z,3.75
2022-10-28T05:38:02.834Z,3.50
2022-10-28T05:40:32.944Z,2.00
2022-10-28T05:43:02.058Z,3.75
2022-10-28T05:47:57.441Z,2.00
2022-10-28T05:50:25.267Z,3.25
2022-10-28T05:52:55.019Z,2.00
2022-10-28T05:55:25.042Z,2.25
2022-10-28T05:57:53.592Z,2.00
2022-10-28T06:00:24.382Z,1.50
2022-10-28T06:02:52.166Z,2.75
2022-10-28T06:05:20.944Z,3.00
2022-10-28T06:07:48.781Z,2.00
2022-10-28T06:10:16.982Z,2.00
2022-10-28T06:12:43.023Z,2.25
2022-10-28T06:15:10.730Z,3.75
2022-10-28T06:17:38.558Z,2.00
2022-10-28T06:20:06.751Z,3.00
2022-10-28T06:22:34.450Z,3.00
2022-10-28T06:25:02.074Z,2.00
2022-10-28T06:27:29.729Z,1.25
2022-10-28T06:29:57.384Z,2.50
2022-10-28T06:32:25.068Z,2.50
2022-10-28T06:34:52.762Z,2.75
2022-10-28T06:37:20.410Z,2.00
2022-10-28T06:39:51.572Z,1.50
2022-10-28T06:42:21.456Z,2.75
2022-10-28T06:44:49.723Z,1.50
2022-10-28T06:47:19.091Z,2.00
2022-10-28T06:49:46.495Z,2.25
2022-10-28T06:52:14.203Z,1.75
2022-10-28T06:54:41.997Z,1.75
2022-10-28T06:57:10.685Z,1.50
2022-10-28T06:59:38.338Z,2.00
2022-10-28T07:02:06.288Z,2.00
2022-10-28T07:04:34.095Z,1.00
2022-10-28T07:07:01.736Z,1.25
2022-10-28T07:09:29.400Z,2.00
2022-10-28T07:12:00.807Z,1.50
2022-10-28T07:14:32.393Z,2.00
2022-10-28T07:16:59.896Z,2.00
2022-10-28T07:19:27.716Z,2.00
2022-10-28T07:21:55.315Z,1.75
2022-10-28T07:24:23.145Z,2.00
2022-10-28T07:26:53.054Z,1.00
2022-10-28T07:29:31.742Z,1.50
2022-10-28T07:31:59.523Z,0.50
2022-10-28T07:34:27.653Z,2.00
2022-10-28T07:36:56.127Z,1.00
2022-10-28T07:39:23.866Z,1.00
2022-10-28T07:41:51.476Z,2.50
2022-10-28T07:44:18.904Z,2.75
2022-10-28T07:46:46.618Z,1.50
2022-10-28T07:49:14.157Z,0.00
2022-10-28T07:51:41.795Z,1.00
2022-10-28T07:54:09.252Z,2.00
2022-10-28T07:56:37.215Z,1.00
2022-10-28T07:59:04.767Z,2.00
2022-10-28T08:01:32.575Z,2.25
2022-10-28T08:04:00.337Z,1.00
2022-10-28T08:06:28.010Z,2.00
2022-10-28T08:08:57.010Z,2.00
2022-10-28T08:11:25.129Z,2.00
2022-10-28T08:13:53.533Z,1.25
2022-10-28T08:16:21.205Z,2.00
2022-10-28T08:18:49.165Z,2.00
2022-10-28T08:21:17.488Z,2.50
2022-10-28T08:23:48.370Z,2.00
2022-10-28T08:26:17.273Z,1.00
2022-10-28T08:28:45.073Z,1.50
2022-10-28T08:31:13.438Z,2.00
2022-10-28T08:33:47.266Z,1.00
2022-10-28T08:36:17.157Z,1.75
2022-10-28T08:38:46.167Z,1.00
2022-10-28T08:41:25.581Z,2.00
2022-10-28T08:44:11.808Z,1.00
2022-10-28T08:47:02.676Z,1.75
2022-10-28T08:49:34.923Z,2.00
2022-10-28T08:52:20.999Z,2.00
2022-10-28T08:54:56.052Z,1.25
2022-10-28T08:57:44.846Z,2.00
2022-10-28T09:00:23.356Z,1.50
2022-10-28T09:02:58.200Z,1.00
2022-10-28T09:05:27.181Z,1.25
2022-10-28T09:07:58.022Z,0.75
2022-10-28T09:11:07.512Z,1.00
2022-10-28T09:13:49.884Z,1.00
2022-10-28T09:16:35.584Z,0.25
2022-10-28T09:19:42.353Z,1.75
2022-10-28T09:22:38.458Z,2.00
2022-10-28T09:25:32.170Z,1.00
2022-10-28T09:28:30.018Z,0.75
2022-10-28T09:31:26.193Z,1.00
2022-10-28T09:34:06.446Z,1.00
2022-10-28T09:36:39.780Z,2.00
2022-10-28T09:39:14.255Z,1.00
2022-10-28T09:41:44.293Z,1.50
2022-10-28T09:44:21.527Z,1.75
2022-10-28T09:46:54.132Z,2.00
2022-10-28T09:49:28.251Z,2.75
2022-10-28T09:52:07.804Z,0.00
2022-10-28T09:54:38.722Z,3.00
2022-10-28T09:57:07.029Z,1.50
2022-10-28T09:59:35.397Z,1.00
2022-10-28T10:02:04.616Z,2.00
2022-10-28T10:04:32.422Z,2.00
2022-10-28T10:07:09.852Z,2.00
2022-10-28T10:09:39.942Z,2.00
2022-10-28T10:12:10.768Z,0.75
2022-10-28T10:14:48.240Z,1.25
2022-10-28T10:17:17.381Z,2.00
2022-10-28T10:20:06.348Z,2.00
2022-10-28T10:22:38.556Z,2.00
2022-10-28T10:25:18.792Z,2.25
2022-10-28T10:28:15.165Z,1.50
2022-10-28T10:30:51.343Z,1.25
2022-10-28T10:33:23.349Z,1.00
2022-10-28T10:36:01.127Z,2.00
2022-10-28T10:38:30.561Z,2.00
2022-10-28T10:40:58.447Z,1.00
2022-10-28T10:43:34.650Z,2.25
2022-10-28T10:46:06.888Z,1.00
2022-10-28T10:48:38.767Z,1.75
2022-10-28T10:51:22.487Z,1.00
2022-10-28T10:53:55.068Z,1.75
2022-10-28T10:56:28.803Z,2.25
2022-10-28T10:59:02.343Z,2.00
2022-10-28T11:01:37.093Z,2.25
2022-10-28T11:04:15.537Z,3.00
2022-10-28T11:06:45.015Z,2.00
2022-10-28T11:09:33.828Z,2.00
2022-10-28T11:12:02.124Z,2.75
2022-10-28T11:14:32.643Z,3.00
2022-10-28T11:17:02.983Z,2.00
2022-10-28T11:19:36.244Z,2.75
2022-10-28T11:22:41.431Z,0.00
2022-10-28T11:25:30.448Z,2.75
2022-10-28T11:28:28.952Z,1.25
2022-10-28T11:31:16.688Z,1.25
2022-10-28T11:34:29.638Z,1.50
2022-10-28T11:37:34.971Z,1.75
2022-10-28T11:40:33.456Z,1.00
2022-10-28T11:43:23.302Z,2.00
2022-10-28T11:46:09.720Z,1.00
2022-10-28T11:49:15.302Z,2.00
2022-10-28T11:51:48.058Z,2.00
2022-10-28T11:54:53.247Z,3.00
2022-10-28T11:57:41.190Z,3.50
2022-10-28T12:00:41.525Z,2.00
2022-10-28T12:03:27.044Z,3.00
2022-10-28T12:06:17.369Z,2.00
2022-10-28T12:09:12.066Z,3.00
2022-10-28T12:11:57.827Z,2.75
2022-10-28T12:14:47.375Z,2.50
2022-10-28T12:17:22.872Z,2.50
2022-10-28T12:20:26.241Z,3.00
2022-10-28T12:22:57.656Z,2.25
2022-10-28T12:25:29.367Z,0.25
2022-10-28T12:28:02.533Z,3.00
2022-10-28T12:30:32.970Z,2.75
2022-10-28T12:33:30.026Z,2.50
2022-10-28T12:36:10.176Z,2.00
2022-10-28T12:38:57.337Z,2.25
2022-10-28T12:41:28.465Z,2.00
2022-10-28T12:44:19.561Z,2.00
2022-10-28T12:47:23.851Z,1.25
2022-10-28T12:50:23.134Z,2.50
2022-10-28T12:53:02.586Z,2.00
2022-10-28T12:55:39.098Z,2.00
2022-10-28T12:58:16.377Z,2.00
2022-10-28T13:00:49.620Z,2.00
2022-10-28T13:03:18.465Z,2.50
2022-10-28T13:06:16.611Z,2.75
2022-10-28T13:09:20.217Z,2.00
2022-10-28T13:12:16.878Z,2.00
2022-10-28T13:15:39.895Z,2.25
2022-10-28T13:18:45.033Z,2.00
2022-10-28T13:21:39.090Z,3.00
2022-10-28T13:24:33.058Z,1.75
2022-10-28T13:27:04.860Z,3.00
2022-10-28T13:29:35.256Z,3.00
2022-10-28T13:32:03.173Z,1.00
2022-10-28T13:34:38.752Z,2.50
2022-10-28T13:37:17.549Z,2.00
2022-10-28T13:39:47.519Z,3.00
2022-10-28T13:42:18.356Z,3.00
2022-10-28T13:44:57.290Z,2.25
2022-10-28T13:47:26.879Z,2.00
2022-10-28T13:50:06.651Z,2.00
2022-10-28T13:52:36.800Z,3.00
2022-10-28T13:55:23.118Z,2.00
2022-10-28T13:57:58.440Z,4.00
2022-10-28T14:03:17.662Z,0.00
2022-10-28T14:05:45.427Z,3.00
2022-10-28T14:08:19.376Z,3.00
2022-10-28T14:11:14.695Z,1.50
2022-10-28T14:13:55.103Z,1.00
2022-10-28T14:16:41.257Z,4.00
2022-10-28T14:19:11.975Z,0.00
2022-10-28T14:21:48.171Z,3.00
2022-10-28T14:24:42.766Z,3.00
2022-10-28T14:27:12.044Z,2.00
2022-10-28T14:30:11.963Z,3.50
2022-10-28T14:33:04.336Z,3.00
2022-10-28T14:35:41.018Z,2.00
2022-10-28T14:38:51.923Z,3.00
2022-10-28T14:41:52.161Z,3.00
2022-10-28T14:44:52.105Z,1.75
2022-10-28T14:47:53.892Z,0.00
2022-10-28T14:50:40.719Z,3.00
2022-10-28T14:53:17.558Z,2.00
2022-10-28T14:55:56.217Z,3.00
2022-10-28T14:58:27.504Z,3.00
2022-10-28T15:01:03.849Z,4.00
2022-10-28T15:03:32.360Z,3.00
2022-10-28T15:06:19.591Z,2.25
2022-10-28T15:08:47.261Z,4.00
2022-10-28T15:11:17.365Z,2.00
2022-10-28T15:13:44.683Z,3.25
2022-10-28T15:16:25.657Z,2.25
2022-10-28T15:18:55.070Z,2.50
2022-10-28T15:21:23.112Z,2.00
2022-10-28T15:24:05.088Z,3.50
2022-10-28T15:26:32.990Z,2.75
2022-10-28T15:29:03.928Z,2.25
2022-10-28T15:31:31.520Z,3.00
2022-10-28T15:33:58.687Z,4.00
2022-10-28T15:36:26.852Z,3.00
2022-10-28T15:39:20.519Z,2.25
2022-10-28T15:41:54.175Z,4.00
2022-10-28T15:44:36.213Z,3.00
2022-10-28T15:47:20.909Z,3.50
2022-10-28T15:50:03.248Z,1.75
2022-10-28T15:52:36.569Z,3.00
2022-10-28T15:55:19.612Z,1.00
2022-10-28T15:57:52.569Z,3.00
2022-10-28T16:00:35.064Z,3.40
2022-10-28T16:03:08.512Z,2.00
2022-10-28T16:05:36.175Z,3.00
2022-10-28T16:08:23.831Z,3.60
2022-10-28T16:10:58.066Z,4.00
2022-10-28T16:13:47.306Z,4.80
2022-10-28T16:16:23.089Z,4.00
2022-10-28T16:18:56.113Z,3.25
2022-10-28T16:21:26.665Z,4.00
2022-10-28T16:24:01.837Z,3.25
2022-10-28T16:26:30.745Z,2.40
2022-10-28T16:28:58.126Z,4.50
2022-10-28T16:31:28.742Z,5.00
2022-10-28T16:33:57.564Z,4.00
2022-10-28T16:36:26.424Z,7.20
2022-10-28T16:38:53.809Z,4.00
2022-10-28T16:41:21.265Z,5.00
2022-10-28T16:43:48.799Z,3.00
2022-10-28T16:46:16.306Z,5.00
2022-10-28T16:48:43.779Z,5.00
2022-10-28T16:51:18.330Z,5.00
2022-10-28T16:53:51.106Z,5.40
2022-10-28T16:56:18.869Z,3.80
2022-10-28T16:58:47.006Z,3.50
2022-10-28T17:01:20.982Z,6.00
2022-10-28T17:03:48.717Z,4.50
2022-10-28T17:06:16.106Z,5.50
2022-10-28T17:09:01.852Z,6.00
2022-10-28T17:13:58.438Z,6.00
2022-10-28T17:16:25.888Z,4.50
2022-10-28T17:18:53.250Z,4.00
2022-10-28T17:21:20.827Z,7.00
2022-10-28T17:23:48.121Z,4.00
2022-10-28T17:26:15.597Z,4.00
2022-10-28T17:28:42.972Z,7.00
2022-10-28T17:31:11.104Z,6.00
2022-10-28T17:33:38.452Z,5.60
2022-10-28T17:36:08.951Z,5.25
2022-10-28T17:38:36.312Z,6.00
2022-10-28T17:41:03.702Z,4.25
2022-10-28T17:43:31.045Z,6.00
2022-10-28T17:46:06.426Z,7.00
2022-10-28T17:48:34.712Z,6.00
2022-10-28T17:51:02.109Z,4.75
2022-10-28T17:53:29.792Z,7.00
2022-10-28T17:56:02.138Z,5.00
2022-10-28T17:58:30.297Z,3.00
2022-10-28T18:01:06.279Z,5.00
2022-10-28T18:03:39.260Z,6.75
2022-10-28T18:06:11.555Z,7.00
2022-10-28T18:08:43.664Z,6.50
2022-10-28T18:11:13.713Z,6.25
2022-10-28T18:13:45.427Z,7.75
2022-10-28T18:16:15.764Z,6.00
2022-10-28T18:18:43.404Z,5.75
2022-10-28T18:21:11.840Z,6.50
2022-10-28T18:23:41.329Z,6.00
2022-10-28T18:26:13.058Z,6.25
2022-10-28T18:28:42.327Z,8.50
2022-10-28T18:31:16.992Z,5.00
2022-10-28T18:33:45.240Z,8.00
2022-10-28T18:36:15.803Z,7.00
2022-10-28T18:38:43.545Z,6.75
2022-10-28T18:41:25.964Z,7.00
2022-10-28T18:44:01.108Z,6.75
2022-10-28T18:46:30.262Z,7.00
2022-10-28T18:48:57.774Z,6.00
2022-10-28T18:51:25.878Z,7.75
2022-10-28T18:53:53.530Z,5.25
2022-10-28T18:56:24.403Z,6.00
2022-10-28T18:58:52.687Z,12.00
2022-10-28T19:01:23.626Z,5.25
2022-10-28T19:03:56.002Z,8.00
2022-10-28T19:06:24.795Z,7.00
2022-10-28T19:08:54.089Z,8.00
2022-10-28T19:11:22.992Z,7.00
2022-10-28T19:13:50.294Z,8.00
2022-10-28T19:16:17.836Z,8.75
2022-10-28T19:18:45.111Z,6.75
2022-10-28T19:21:16.864Z,8.25
2022-10-28T19:23:44.287Z,7.00
2022-10-28T19:26:12.439Z,7.50
2022-10-28T19:28:40.746Z,10.00
2022-10-28T19:31:11.192Z,7.25
2022-10-28T19:33:39.437Z,8.25
2022-10-28T19:36:29.086Z,6.00
2022-10-28T19:38:58.121Z,6.25
2022-10-28T19:41:28.182Z,9.25
2022-10-28T19:43:58.494Z,9.00
2022-10-28T19:46:29.015Z,7.75
2022-10-28T19:49:01.480Z,7.00
2022-10-28T19:51:31.192Z,7.50
2022-10-28T19:54:01.024Z,7.00
2022-10-28T19:56:30.211Z,8.00
2022-10-28T19:59:00.041Z,5.75
2022-10-28T20:01:30.066Z,7.00
2022-10-28T20:03:58.056Z,4.25
2022-10-28T20:06:27.661Z,10.00
2022-10-28T20:08:55.120Z,9.25
2022-10-28T20:11:28.248Z,7.25
2022-10-28T20:14:06.729Z,8.25
2022-10-28T20:16:34.342Z,9.00
2022-10-28T20:19:02.043Z,6.25
2022-10-28T20:21:31.596Z,8.25
2022-10-28T20:23:59.100Z,11.00
2022-10-28T20:26:29.134Z,8.00
2022-10-28T20:28:57.655Z,6.00
2022-10-28T20:31:27.272Z,9.25
2022-10-28T20:34:00.120Z,10.00
2022-10-28T20:36:41.365Z,7.75
2022-10-28T20:39:12.476Z,9.00
2022-10-28T20:41:41.762Z,10.50
2022-10-28T20:44:09.523Z,6.50
2022-10-28T20:46:38.277Z,9.00
2022-10-28T20:49:06.683Z,9.00
2022-10-28T20:51:34.403Z,11.25
2022-10-28T20:54:02.367Z,10.00
2022-10-28T20:56:32.212Z,10.25
2022-10-28T20:59:00.375Z,9.00
2022-10-28T21:01:37.638Z,8.00
2022-10-28T21:04:10.525Z,8.50
2022-10-28T21:06:38.810Z,9.50
2022-10-28T21:09:07.482Z,8.00
2022-10-28T21:11:35.142Z,10.00
2022-10-28T21:14:02.779Z,9.25
2022-10-28T21:16:30.960Z,9.00
2022-10-28T21:18:59.699Z,5.75
2022-10-28T21:21:28.192Z,8.75
2022-10-28T21:23:55.704Z,8.00
2022-10-28T21:26:23.658Z,8.00
2022-10-28T21:28:52.942Z,9.25
2022-10-28T21:31:21.284Z,8.25
2022-10-28T21:36:19.595Z,10.00
2022-10-28T21:38:47.425Z,8.25
2022-10-28T21:41:20.459Z,7.00
2022-10-28T21:43:50.132Z,7.50
2022-10-28T21:46:22.319Z,6.00
2022-10-28T21:48:49.922Z,8.50
2022-10-28T21:51:18.030Z,7.25
2022-10-28T21:53:46.306Z,8.50
2022-10-28T21:56:18.059Z,8.25
2022-10-28T21:58:48.246Z,10.25
2022-10-28T22:01:19.377Z,8.00
2022-10-28T22:03:47.227Z,7.00
2022-10-28T22:06:15.203Z,8.25
2022-10-28T22:08:43.263Z,8.50
2022-10-28T22:11:15.911Z,8.25
2022-10-28T22:13:43.962Z,7.75
2022-10-28T22:16:15.038Z,6.50
2022-10-28T22:18:43.287Z,8.00
2022-10-28T22:21:16.999Z,8.25
2022-10-28T22:23:45.188Z,8.50
2022-10-28T22:26:28.829Z,7.50
2022-10-28T22:28:57.035Z,6.75
2022-10-28T22:31:27.858Z,7.00
2022-10-28T22:33:57.275Z,5.00
2022-10-28T22:36:27.385Z,6.25
2022-10-28T22:38:55.272Z,6.00
2022-10-28T22:41:31.387Z,4.00
2022-10-28T22:44:01.061Z,6.00
2022-10-28T22:46:31.948Z,6.75
2022-10-28T22:49:00.164Z,5.75
2022-10-28T22:51:27.831Z,4.00
2022-10-28T22:53:55.585Z,3.25
2022-10-28T22:56:25.343Z,6.75
2022-10-28T22:58:58.540Z,7.00
2022-10-28T23:01:27.918Z,3.00
2022-10-28T23:03:56.220Z,8.00
2022-10-28T23:06:26.546Z,6.00
2022-10-28T23:08:54.463Z,6.75
2022-10-28T23:11:22.881Z,4.50
2022-10-28T23:13:54.727Z,6.67
2022-10-28T23:16:23.869Z,6.00
2022-10-28T23:18:53.231Z,6.00
2022-10-28T23:21:23.740Z,5.00
2022-10-28T23:23:56.706Z,6.50
2022-10-28T23:26:25.541Z,6.75
2022-10-28T23:28:56.139Z,7.50
2022-10-28T23:31:24.315Z,6.00
2022-10-28T23:33:52.862Z,5.00
2022-10-28T23:36:20.741Z,6.25
2022-10-28T23:38:48.597Z,5.75
2022-10-28T23:41:19.191Z,5.25
2022-10-28T23:43:47.461Z,4.75
2022-10-28T23:46:15.221Z,6.75
2022-10-28T23:48:42.860Z,7.00
2022-10-28T23:51:10.297Z,6.25
2022-10-28T23:53:38.033Z,6.50
2022-10-28T23:56:06.305Z,5.50
2022-10-28T23:58:33.939Z,7.00
